createdAt,value
2019-05-18T00:01:33.166Z,16.23
2019-05-18T00:04:02.358Z,16.37
2019-05-18T00:06:30.908Z,16.27
2019-05-18T00:08:59.469Z,16.50
2019-05-18T00:11:28.043Z,16.48
2019-05-18T00:13:56.648Z,16.12
2019-05-18T00:16:25.233Z,15.98
2019-05-18T00:18:53.793Z,16.40
2019-05-18T00:21:22.486Z,15.60
2019-05-18T00:23:51.073Z,15.88
2019-05-18T00:26:19.627Z,15.75
2019-05-18T00:31:16.858Z,15.15
2019-05-18T00:33:46.472Z,16.05
2019-05-18T00:36:25.154Z,16.73
2019-05-18T00:38:53.692Z,16.40
2019-05-18T00:41:22.335Z,16.42
2019-05-18T00:43:50.915Z,16.23
2019-05-18T00:46:19.754Z,17.37
2019-05-18T00:48:48.372Z,16.97
2019-05-18T00:51:16.893Z,16.48
2019-05-18T00:53:45.386Z,16.40
2019-05-18T00:56:13.891Z,17.40
2019-05-18T00:58:42.715Z,17.07
2019-05-18T01:01:11.287Z,16.93
2019-05-18T01:03:39.874Z,16.82
2019-05-18T01:08:36.804Z,15.60
2019-05-18T01:11:07.001Z,16.80
2019-05-18T01:13:37.554Z,18.07
2019-05-18T01:16:06.181Z,17.37
2019-05-18T01:18:34.735Z,17.85
2019-05-18T01:21:03.965Z,17.98
2019-05-18T01:23:32.555Z,18.17
2019-05-18T01:26:01.148Z,17.33
2019-05-18T01:28:29.699Z,17.17
2019-05-18T01:30:58.328Z,17.07
2019-05-18T01:33:27.793Z,17.23
2019-05-18T01:35:56.491Z,17.50
2019-05-18T01:38:25.104Z,17.77
2019-05-18T01:40:53.724Z,16.65
2019-05-18T01:43:22.300Z,17.17
2019-05-18T01:45:50.970Z,18.90
2019-05-18T01:50:47.253Z,18.73
2019-05-18T01:53:15.749Z,18.20
2019-05-18T01:58:12.208Z,18.75
2019-05-18T02:00:40.817Z,18.70
2019-05-18T02:05:37.101Z,18.00
2019-05-18T02:08:05.778Z,19.42
2019-05-18T02:10:34.343Z,18.37
2019-05-18T02:13:03.002Z,19.42
2019-05-18T02:15:31.653Z,19.45
2019-05-18T02:18:00.216Z,18.55
2019-05-18T02:20:28.939Z,20.10
2019-05-18T02:22:57.438Z,17.70
2019-05-18T02:25:27.239Z,18.45
2019-05-18T02:27:55.761Z,19.17
2019-05-18T02:30:24.315Z,17.87
2019-05-18T02:32:52.901Z,19.90
2019-05-18T02:35:21.483Z,18.23
2019-05-18T02:37:50.428Z,18.77
2019-05-18T02:40:19.097Z,19.30
2019-05-18T02:42:47.672Z,18.95
2019-05-18T02:45:16.357Z,18.12
2019-05-18T02:47:44.939Z,20.25
2019-05-18T02:50:13.821Z,19.55
2019-05-18T02:52:42.384Z,20.15
2019-05-18T02:55:11.150Z,19.10
2019-05-18T02:57:39.708Z,19.27
2019-05-18T03:00:11.378Z,19.57
2019-05-18T03:02:39.964Z,19.52
2019-05-18T03:05:08.805Z,19.32
2019-05-18T03:07:37.330Z,19.60
2019-05-18T03:10:07.974Z,20.80
2019-05-18T03:12:36.686Z,19.45
2019-05-18T03:15:06.969Z,19.15
2019-05-18T03:20:06.497Z,19.65
2019-05-18T03:22:35.051Z,18.77
2019-05-18T03:25:05.091Z,19.42
2019-05-18T03:27:33.638Z,19.75
2019-05-18T03:30:02.216Z,20.10
2019-05-18T03:32:30.800Z,20.30
2019-05-18T03:37:27.171Z,20.32
2019-05-18T03:39:55.742Z,20.27
2019-05-18T03:42:24.333Z,19.50
2019-05-18T03:44:52.918Z,20.88
2019-05-18T03:47:21.486Z,19.87
2019-05-18T03:49:50.149Z,20.12
2019-05-18T03:52:18.653Z,21.65
2019-05-18T03:54:47.232Z,20.82
2019-05-18T03:57:15.861Z,20.30
2019-05-18T03:59:44.464Z,19.62
2019-05-18T04:02:13.068Z,19.95
2019-05-18T04:04:41.649Z,20.25
2019-05-18T04:07:10.236Z,19.65
2019-05-18T04:09:38.818Z,20.45
2019-05-18T04:12:07.644Z,20.10
2019-05-18T04:14:36.795Z,21.00
2019-05-18T04:17:05.355Z,19.62
2019-05-18T04:19:45.478Z,20.65
2019-05-18T04:22:05.865Z,19.37
2019-05-18T04:24:34.458Z,20.32
2019-05-18T04:27:03.030Z,20.32
2019-05-18T04:29:32.395Z,20.95
2019-05-18T04:32:00.989Z,22.02
2019-05-18T04:34:29.601Z,22.30
2019-05-18T04:36:58.175Z,22.00
2019-05-18T04:39:26.780Z,21.55
2019-05-18T04:41:55.338Z,22.13
2019-05-18T04:44:23.925Z,21.97
2019-05-18T04:46:52.508Z,19.98
2019-05-18T04:49:21.366Z,21.05
2019-05-18T04:51:49.977Z,20.57
2019-05-18T04:54:19.717Z,20.48
2019-05-18T04:56:48.648Z,21.27
2019-05-18T04:59:17.241Z,21.07
2019-05-18T05:01:46.712Z,20.30
2019-05-18T05:04:15.307Z,20.08
2019-05-18T05:06:43.913Z,21.12
2019-05-18T05:09:15.800Z,18.82
2019-05-18T05:11:44.359Z,19.50
2019-05-18T05:14:12.931Z,20.65
2019-05-18T05:16:41.511Z,19.95
2019-05-18T05:19:10.071Z,19.40
2019-05-18T05:21:38.635Z,20.08
2019-05-18T05:24:07.224Z,19.73
2019-05-18T05:29:03.547Z,20.08
2019-05-18T05:31:32.120Z,19.02
2019-05-18T05:34:00.733Z,19.30
2019-05-18T05:36:30.410Z,19.92
2019-05-18T05:38:59.000Z,17.92
2019-05-18T05:41:27.642Z,18.12
2019-05-18T05:43:56.208Z,18.10
2019-05-18T05:46:24.801Z,18.23
2019-05-18T05:48:53.407Z,16.00
2019-05-18T05:51:22.380Z,16.52
2019-05-18T05:53:51.281Z,17.05
2019-05-18T05:58:47.702Z,17.17
2019-05-18T06:01:16.352Z,16.62
2019-05-18T06:03:46.014Z,16.87
2019-05-18T06:06:14.533Z,16.70
2019-05-18T06:08:43.028Z,16.32
2019-05-18T06:11:11.560Z,18.07
2019-05-18T06:13:40.114Z,15.78
2019-05-18T06:16:08.637Z,16.40
2019-05-18T06:18:37.195Z,15.53
2019-05-18T06:21:05.751Z,15.93
2019-05-18T06:23:34.401Z,15.23
2019-05-18T06:26:02.955Z,15.25
2019-05-18T06:28:31.575Z,15.35
2019-05-18T06:31:00.118Z,13.93
2019-05-18T06:33:28.657Z,14.00
2019-05-18T06:35:58.804Z,13.43
2019-05-18T06:38:28.748Z,13.68
2019-05-18T06:40:57.317Z,12.90
2019-05-18T06:43:25.902Z,13.22
2019-05-18T06:45:54.727Z,12.40
2019-05-18T06:48:23.878Z,13.65
2019-05-18T06:51:06.235Z,12.82
2019-05-18T06:53:23.490Z,13.55
2019-05-18T06:55:53.493Z,12.67
2019-05-18T06:58:22.164Z,11.63
2019-05-18T07:00:52.106Z,12.88
2019-05-18T07:03:20.583Z,11.80
2019-05-18T07:05:49.151Z,12.30
2019-05-18T07:08:17.724Z,12.13
2019-05-18T07:10:46.741Z,12.23
2019-05-18T07:13:15.370Z,11.57
2019-05-18T07:15:44.402Z,12.30
2019-05-18T07:18:12.963Z,12.15
2019-05-18T07:20:41.498Z,12.47
2019-05-18T07:23:09.996Z,11.88
2019-05-18T07:25:38.475Z,13.72
2019-05-18T07:28:07.278Z,12.43
2019-05-18T07:30:35.850Z,11.53
2019-05-18T07:33:04.426Z,11.80
2019-05-18T07:35:33.015Z,11.55
2019-05-18T07:38:01.570Z,11.83
2019-05-18T07:40:30.258Z,10.70
2019-05-18T07:42:58.868Z,10.80
2019-05-18T07:45:27.431Z,11.08
2019-05-18T07:47:55.951Z,10.80
2019-05-18T07:50:24.556Z,11.37
2019-05-18T07:52:53.127Z,10.72
2019-05-18T07:55:21.633Z,10.68
2019-05-18T07:57:50.142Z,10.58
2019-05-18T08:00:18.789Z,10.58
2019-05-18T08:02:47.327Z,10.48
2019-05-18T08:05:16.063Z,10.25
2019-05-18T08:07:44.598Z,9.73
2019-05-18T08:10:13.657Z,10.35
2019-05-18T08:12:42.264Z,9.95
2019-05-18T08:15:11.267Z,10.78
2019-05-18T08:17:39.846Z,9.10
2019-05-18T08:20:09.481Z,9.63
2019-05-18T08:22:38.067Z,9.78
2019-05-18T08:25:08.260Z,9.10
2019-05-18T08:27:36.842Z,9.35
2019-05-18T08:30:06.978Z,8.58
2019-05-18T08:32:36.065Z,8.37
2019-05-18T08:35:06.046Z,8.10
2019-05-18T08:37:34.646Z,9.10
2019-05-18T08:40:03.881Z,8.28
2019-05-18T08:42:32.537Z,9.13
2019-05-18T08:45:02.670Z,9.38
2019-05-18T08:47:31.294Z,8.98
2019-05-18T08:49:59.842Z,9.80
2019-05-18T08:52:28.448Z,9.00
2019-05-18T08:54:57.026Z,8.45
2019-05-18T08:57:25.625Z,8.65
2019-05-18T08:59:55.746Z,8.35
2019-05-18T09:02:24.342Z,7.42
2019-05-18T09:04:52.915Z,6.73
2019-05-18T09:07:21.466Z,7.20
2019-05-18T09:09:51.027Z,7.03
2019-05-18T09:12:19.602Z,7.22
2019-05-18T09:14:48.168Z,8.10
2019-05-18T09:17:16.762Z,8.15
2019-05-18T09:19:45.329Z,8.55
2019-05-18T09:22:22.736Z,7.58
2019-05-18T09:24:44.165Z,7.10
2019-05-18T09:27:14.880Z,7.62
2019-05-18T09:29:43.444Z,8.28
2019-05-18T09:32:12.021Z,8.35
2019-05-18T09:34:40.577Z,7.60
2019-05-18T09:37:09.173Z,7.40
2019-05-18T09:39:37.743Z,7.58
2019-05-18T09:42:06.302Z,8.85
2019-05-18T09:44:35.685Z,7.90
2019-05-18T09:47:04.637Z,7.30
2019-05-18T09:49:33.266Z,8.10
2019-05-18T09:52:01.866Z,8.08
2019-05-18T09:54:30.421Z,6.72
2019-05-18T09:56:59.950Z,6.92
2019-05-18T09:59:28.530Z,7.20
2019-05-18T10:01:57.025Z,5.78
2019-05-18T10:04:25.607Z,5.62
2019-05-18T10:06:54.177Z,5.12
2019-05-18T10:09:22.816Z,6.55
2019-05-18T10:11:51.366Z,5.78
2019-05-18T10:14:19.931Z,5.17
2019-05-18T10:16:49.099Z,4.67
2019-05-18T10:19:19.557Z,4.80
2019-05-18T10:21:48.986Z,4.85
2019-05-18T10:24:17.551Z,4.47
2019-05-18T10:26:46.161Z,11.83
2019-05-18T10:29:17.171Z,5.95
2019-05-18T10:31:46.274Z,4.60
2019-05-18T10:34:14.858Z,4.80
2019-05-18T10:36:43.683Z,4.53
2019-05-18T10:39:12.413Z,5.20
2019-05-18T10:41:42.001Z,4.75
2019-05-18T10:44:10.593Z,4.78
2019-05-18T10:46:42.737Z,4.37
2019-05-18T10:49:12.516Z,4.40
2019-05-18T10:51:41.090Z,5.62
2019-05-18T10:54:09.663Z,5.78
2019-05-18T10:56:38.247Z,5.70
2019-05-18T10:59:06.862Z,6.10
2019-05-18T11:01:35.418Z,6.03
2019-05-18T11:04:04.022Z,6.05
2019-05-18T11:06:32.608Z,5.83
2019-05-18T11:09:01.197Z,5.37
2019-05-18T11:11:33.318Z,5.10
2019-05-18T11:14:04.820Z,5.40
2019-05-18T11:16:37.664Z,7.60
2019-05-18T11:19:03.547Z,6.35
2019-05-18T11:21:32.098Z,6.20
2019-05-18T11:24:02.226Z,6.03
2019-05-18T11:26:30.783Z,5.40
2019-05-18T11:28:59.343Z,5.83
2019-05-18T11:31:27.815Z,6.28
2019-05-18T11:33:56.422Z,6.72
2019-05-18T11:36:25.241Z,7.28
2019-05-18T11:38:53.928Z,5.87
2019-05-18T11:41:22.471Z,6.28
2019-05-18T11:43:51.047Z,6.42
2019-05-18T11:46:19.583Z,6.83
2019-05-18T11:48:48.114Z,6.37
2019-05-18T11:51:17.046Z,5.75
2019-05-18T11:53:57.554Z,5.97
2019-05-18T11:56:15.831Z,5.85
2019-05-18T11:58:45.413Z,5.90
2019-05-18T12:01:14.475Z,5.37
2019-05-18T12:03:43.039Z,5.45
2019-05-18T12:06:13.319Z,6.28
2019-05-18T12:08:41.890Z,6.10
2019-05-18T12:11:10.432Z,6.45
2019-05-18T12:13:38.938Z,6.10
2019-05-18T12:16:07.450Z,6.22
2019-05-18T12:18:36.011Z,5.60
2019-05-18T12:21:04.501Z,7.67
2019-05-18T12:23:35.295Z,6.58
2019-05-18T12:26:03.875Z,5.90
2019-05-18T12:28:32.362Z,5.58
2019-05-18T12:31:02.169Z,5.12
2019-05-18T12:33:30.913Z,5.60
2019-05-18T12:35:59.410Z,5.37
2019-05-18T12:38:27.967Z,4.83
2019-05-18T12:40:56.788Z,5.33
2019-05-18T12:43:25.290Z,4.80
2019-05-18T12:45:54.348Z,5.08
2019-05-18T12:48:22.978Z,4.63
2019-05-18T12:50:51.537Z,4.62
2019-05-18T12:53:21.570Z,4.28
2019-05-18T12:55:50.100Z,4.03
2019-05-18T12:58:18.676Z,4.83
2019-05-18T13:00:47.231Z,4.50
2019-05-18T13:03:15.807Z,4.60
2019-05-18T13:05:44.873Z,4.12
2019-05-18T13:08:13.445Z,3.60
2019-05-18T13:10:42.011Z,4.22
2019-05-18T13:13:12.090Z,3.42
2019-05-18T13:15:40.598Z,5.10
2019-05-18T13:18:09.107Z,4.22
2019-05-18T13:20:37.635Z,3.85
2019-05-18T13:23:06.105Z,3.98
2019-05-18T13:25:34.909Z,3.70
2019-05-18T13:28:04.604Z,4.25
2019-05-18T13:30:33.719Z,3.83
2019-05-18T13:33:03.162Z,3.90
2019-05-18T13:35:31.758Z,4.42
2019-05-18T13:38:00.351Z,3.90
2019-05-18T13:40:28.948Z,3.50
2019-05-18T13:42:57.481Z,3.50
2019-05-18T13:45:26.076Z,3.40
2019-05-18T13:47:55.456Z,3.40
2019-05-18T13:50:26.620Z,4.28
2019-05-18T13:52:56.959Z,3.98
2019-05-18T13:55:26.140Z,3.67
2019-05-18T13:57:54.728Z,3.85
2019-05-18T14:00:23.407Z,3.30
2019-05-18T14:02:51.991Z,3.62
2019-05-18T14:05:20.724Z,3.80
2019-05-18T14:07:49.292Z,3.35
2019-05-18T14:10:18.480Z,3.45
2019-05-18T14:12:47.102Z,3.58
2019-05-18T14:15:15.999Z,3.33
2019-05-18T14:17:44.561Z,3.22
2019-05-18T14:20:13.797Z,3.70
2019-05-18T14:22:42.383Z,3.50
2019-05-18T14:25:19.334Z,4.00
2019-05-18T14:27:43.825Z,4.05
2019-05-18T14:30:12.725Z,4.08
2019-05-18T14:32:41.378Z,3.92
2019-05-18T14:35:11.255Z,3.80
2019-05-18T14:37:39.858Z,3.37
2019-05-18T14:40:16.408Z,3.05
2019-05-18T14:42:47.065Z,3.58
2019-05-18T14:45:15.864Z,3.72
2019-05-18T14:47:46.061Z,3.45
2019-05-18T14:50:16.070Z,3.37
2019-05-18T14:52:46.886Z,3.60
2019-05-18T14:55:15.712Z,3.42
2019-05-18T14:57:45.542Z,3.22
2019-05-18T15:00:15.754Z,3.92
2019-05-18T15:02:44.310Z,4.17
2019-05-18T15:05:13.151Z,3.60
2019-05-18T15:07:42.995Z,3.87
2019-05-18T15:10:13.418Z,3.60
2019-05-18T15:12:43.375Z,3.80
2019-05-18T15:15:12.678Z,9.70
2019-05-18T15:17:41.232Z,3.85
2019-05-18T15:20:11.621Z,4.28
2019-05-18T15:22:40.176Z,3.80
2019-05-18T15:25:10.114Z,5.20
2019-05-18T15:27:38.678Z,3.90
2019-05-18T15:30:07.677Z,3.45
2019-05-18T15:32:36.426Z,3.92
2019-05-18T15:35:06.828Z,3.92
2019-05-18T15:37:35.424Z,3.33
2019-05-18T15:40:05.155Z,4.75
2019-05-18T15:42:33.849Z,3.70
2019-05-18T15:45:02.725Z,3.35
2019-05-18T15:47:31.466Z,3.80
2019-05-18T15:50:00.040Z,6.97
2019-05-18T15:52:28.895Z,5.87
2019-05-18T15:54:57.483Z,3.95
2019-05-18T15:57:27.148Z,4.28
2019-05-18T15:59:55.706Z,3.67
2019-05-18T16:02:24.303Z,3.08
2019-05-18T16:04:52.862Z,3.65
2019-05-18T16:07:21.467Z,3.60
2019-05-18T16:09:50.028Z,3.80
2019-05-18T16:12:19.788Z,3.67
2019-05-18T16:14:48.353Z,3.42
2019-05-18T16:17:16.916Z,4.65
2019-05-18T16:19:46.746Z,4.62
2019-05-18T16:22:15.308Z,3.77
2019-05-18T16:24:43.908Z,4.30
2019-05-18T16:27:12.431Z,4.30
2019-05-18T16:29:43.405Z,3.87
2019-05-18T16:32:11.904Z,4.35
2019-05-18T16:34:40.400Z,4.00
2019-05-18T16:37:08.945Z,4.65
2019-05-18T16:39:37.531Z,4.40
2019-05-18T16:42:06.125Z,4.10
2019-05-18T16:44:34.722Z,4.08
2019-05-18T16:47:03.265Z,3.77
2019-05-18T16:49:33.388Z,4.25
2019-05-18T16:52:01.939Z,4.15
2019-05-18T16:54:30.520Z,4.05
2019-05-18T16:57:00.688Z,4.25
2019-05-18T16:59:30.125Z,4.00
2019-05-18T17:01:58.649Z,4.12
2019-05-18T17:04:27.225Z,5.35
2019-05-18T17:06:58.764Z,5.87
2019-05-18T17:09:27.367Z,4.45
2019-05-18T17:11:56.374Z,4.10
2019-05-18T17:14:25.586Z,4.28
2019-05-18T17:16:54.848Z,4.85
2019-05-18T17:19:23.429Z,4.80
2019-05-18T17:21:52.206Z,4.08
2019-05-18T17:24:22.277Z,4.72
2019-05-18T17:26:53.216Z,4.37
2019-05-18T17:29:21.136Z,4.37
2019-05-18T17:31:49.930Z,4.65
2019-05-18T17:34:18.595Z,4.05
2019-05-18T17:36:47.161Z,4.58
2019-05-18T17:39:15.697Z,4.90
2019-05-18T17:41:45.214Z,3.92
2019-05-18T17:44:13.798Z,4.33
2019-05-18T17:46:42.369Z,6.58
2019-05-18T17:49:25.823Z,5.22
2019-05-18T17:51:41.462Z,5.00
2019-05-18T17:54:10.061Z,4.65
2019-05-18T17:56:38.615Z,5.20
2019-05-18T17:59:07.207Z,4.22
2019-05-18T18:01:39.294Z,5.30
2019-05-18T18:04:07.596Z,5.72
2019-05-18T18:06:36.764Z,5.20
2019-05-18T18:09:08.518Z,5.47
2019-05-18T18:11:37.115Z,4.80
2019-05-18T18:14:06.983Z,5.97
2019-05-18T18:16:35.796Z,5.37
2019-05-18T18:19:04.390Z,5.67
2019-05-18T18:21:32.999Z,5.87
2019-05-18T18:24:01.586Z,7.95
2019-05-18T18:26:31.827Z,6.20
2019-05-18T18:29:00.479Z,6.78
2019-05-18T18:31:29.070Z,23.35
2019-05-18T18:33:59.145Z,7.17
2019-05-18T18:36:27.634Z,6.87
2019-05-18T18:38:56.473Z,8.00
2019-05-18T18:41:24.982Z,6.55
2019-05-18T18:43:53.558Z,6.17
2019-05-18T18:46:23.208Z,7.78
2019-05-18T18:48:52.149Z,5.78
2019-05-18T18:51:20.733Z,7.58
2019-05-18T18:53:49.623Z,10.70
2019-05-18T18:56:19.471Z,8.38
2019-05-18T18:58:48.048Z,8.70
2019-05-18T19:01:17.160Z,8.75
2019-05-18T19:03:47.631Z,7.87
2019-05-18T19:06:15.945Z,7.95
2019-05-18T19:08:47.987Z,7.92
2019-05-18T19:11:16.483Z,7.55
2019-05-18T19:13:46.088Z,7.42
2019-05-18T19:16:15.818Z,8.18
2019-05-18T19:18:45.378Z,8.58
2019-05-18T19:21:15.823Z,8.13
2019-05-18T19:23:44.385Z,7.65
2019-05-18T19:26:12.949Z,6.42
2019-05-18T19:28:41.455Z,6.22
2019-05-18T19:31:12.402Z,7.47
2019-05-18T19:33:41.522Z,8.08
2019-05-18T19:36:09.990Z,7.95
2019-05-18T19:38:38.578Z,14.85
2019-05-18T19:41:07.056Z,17.30
2019-05-18T19:43:35.556Z,14.95
2019-05-18T19:46:04.139Z,8.63
2019-05-18T19:48:32.947Z,8.23
2019-05-18T19:51:01.530Z,13.35
2019-05-18T19:53:30.097Z,7.12
2019-05-18T19:55:58.704Z,6.87
2019-05-18T19:58:27.252Z,6.08
2019-05-18T20:00:57.474Z,6.92
2019-05-18T20:03:29.030Z,7.05
2019-05-18T20:05:57.596Z,5.97
2019-05-18T20:08:26.076Z,6.72
2019-05-18T20:10:54.598Z,12.33
2019-05-18T20:13:23.699Z,8.05
2019-05-18T20:15:52.231Z,11.05
2019-05-18T20:18:20.828Z,7.35
2019-05-18T20:20:52.172Z,8.43
2019-05-18T20:23:20.694Z,8.98
2019-05-18T20:25:49.494Z,16.17
2019-05-18T20:28:23.803Z,16.65
2019-05-18T20:30:48.407Z,16.60
2019-05-18T20:33:17.057Z,16.20
2019-05-18T20:35:48.036Z,14.78
2019-05-18T20:38:18.163Z,14.90
2019-05-18T20:40:48.735Z,15.15
2019-05-18T20:43:17.261Z,16.15
2019-05-18T20:45:46.367Z,14.93
2019-05-18T20:48:16.887Z,14.15
2019-05-18T20:50:46.022Z,15.60
2019-05-18T20:53:14.848Z,16.05
2019-05-18T20:55:45.067Z,17.75
2019-05-18T20:58:13.619Z,17.50
2019-05-18T21:00:42.211Z,17.02
2019-05-18T21:03:10.816Z,17.00
2019-05-18T21:05:40.673Z,17.73
2019-05-18T21:08:09.208Z,17.40
2019-05-18T21:10:38.647Z,17.73
2019-05-18T21:13:07.371Z,19.52
2019-05-18T21:15:35.896Z,15.43
2019-05-18T21:18:04.440Z,18.90
2019-05-18T21:20:36.601Z,15.48
2019-05-18T21:23:05.182Z,15.32
2019-05-18T21:25:33.901Z,15.43
2019-05-18T21:28:02.514Z,17.20
2019-05-18T21:30:31.090Z,13.35
2019-05-18T21:32:59.702Z,12.03
2019-05-18T21:35:28.288Z,15.43
2019-05-18T21:37:56.868Z,16.25
2019-05-18T21:40:27.170Z,14.43
2019-05-18T21:42:56.112Z,21.17
2019-05-18T21:45:24.706Z,14.20
2019-05-18T21:47:54.905Z,21.97
2019-05-18T21:50:23.491Z,23.10
2019-05-18T21:52:52.073Z,22.60
2019-05-18T21:55:20.677Z,20.62
2019-05-18T21:57:49.297Z,21.95
2019-05-18T22:00:18.132Z,19.67
2019-05-18T22:02:48.477Z,20.97
2019-05-18T22:05:17.167Z,20.10
2019-05-18T22:07:46.450Z,21.82
2019-05-18T22:10:25.467Z,20.95
2019-05-18T22:12:47.085Z,21.02
2019-05-18T22:15:15.693Z,21.42
2019-05-18T22:18:02.262Z,21.40
2019-05-18T22:20:31.503Z,21.75
2019-05-18T22:23:00.871Z,20.80
2019-05-18T22:25:29.420Z,23.75
2019-05-18T22:27:58.045Z,23.05
2019-05-18T22:30:26.604Z,22.90
2019-05-18T22:32:56.093Z,23.50
2019-05-18T22:35:25.153Z,24.15
2019-05-18T22:37:53.733Z,23.90
2019-05-18T22:40:22.302Z,26.25
2019-05-18T22:42:50.890Z,27.02
2019-05-18T22:45:21.059Z,28.50
2019-05-18T22:47:49.618Z,28.25
2019-05-18T22:50:19.283Z,26.23
2019-05-18T22:52:48.042Z,28.35
2019-05-18T22:55:16.781Z,26.48
2019-05-18T22:57:45.372Z,27.98
2019-05-18T23:00:14.656Z,26.95
2019-05-18T23:02:43.215Z,39.80
2019-05-18T23:05:11.941Z,26.73
2019-05-18T23:07:41.794Z,24.98
2019-05-18T23:10:10.719Z,25.72
2019-05-18T23:12:39.285Z,25.57
2019-05-18T23:15:09.034Z,24.63
2019-05-18T23:17:37.644Z,25.12
2019-05-18T23:20:06.652Z,24.40
2019-05-18T23:22:35.224Z,23.62
2019-05-18T23:25:05.744Z,27.05
2019-05-18T23:27:34.313Z,25.90
2019-05-18T23:30:03.800Z,25.55
2019-05-18T23:32:32.355Z,24.97
2019-05-18T23:35:00.947Z,24.20
2019-05-18T23:37:29.524Z,25.02
2019-05-18T23:39:59.623Z,24.23
2019-05-18T23:42:28.249Z,25.70
2019-05-18T23:44:56.801Z,24.35
2019-05-18T23:47:25.375Z,23.90
2019-05-18T23:49:53.963Z,23.77
2019-05-18T23:52:22.565Z,25.82
2019-05-18T23:54:51.169Z,23.70
2019-05-18T23:57:19.743Z,24.15
2019-05-18T23:59:48.384Z,24.50
